createdAt,value
2022-08-20T00:00:14.247Z,19.50
2022-08-20T00:01:14.397Z,19.50
2022-08-20T00:02:14.311Z,19.49
2022-08-20T00:03:14.218Z,19.49
2022-08-20T00:04:14.207Z,19.48
2022-08-20T00:05:14.200Z,19.47
2022-08-20T00:06:14.188Z,19.47
2022-08-20T00:07:14.508Z,19.46
2022-08-20T00:08:14.168Z,19.44
2022-08-20T00:09:14.155Z,19.43
2022-08-20T00:10:14.146Z,19.42
2022-08-20T00:11:14.151Z,19.42
2022-08-20T00:12:14.157Z,19.42
2022-08-20T00:13:18.163Z,19.41
2022-08-20T00:14:14.107Z,19.40
2022-08-20T00:15:14.088Z,19.39
2022-08-20T00:16:14.079Z,19.38
2022-08-20T00:17:14.082Z,19.38
2022-08-20T00:18:14.059Z,19.37
2022-08-20T00:19:14.218Z,19.36
2022-08-20T00:20:14.048Z,19.36
2022-08-20T00:21:18.932Z,19.35
2022-08-20T00:22:15.021Z,19.35
2022-08-20T00:23:14.008Z,19.35
2022-08-20T00:24:14.450Z,19.35
2022-08-20T00:25:13.993Z,19.35
2022-08-20T00:26:13.987Z,19.35
2022-08-20T00:27:13.970Z,19.34
2022-08-20T00:28:13.963Z,19.34
2022-08-20T00:29:13.948Z,19.35
2022-08-20T00:30:14.089Z,19.35
2022-08-20T00:31:13.920Z,19.35
2022-08-20T00:32:13.930Z,19.35
2022-08-20T00:33:13.904Z,19.35
2022-08-20T00:34:13.898Z,19.35
2022-08-20T00:35:14.041Z,19.35
2022-08-20T00:36:13.921Z,19.34
2022-08-20T00:37:13.868Z,19.34
2022-08-20T00:38:13.885Z,19.34
2022-08-20T00:39:13.829Z,19.33
2022-08-20T00:40:22.188Z,19.33
2022-08-20T00:41:14.999Z,19.33
2022-08-20T00:42:13.805Z,19.33
2022-08-20T00:43:13.806Z,19.33
2022-08-20T00:44:13.795Z,19.33
2022-08-20T00:45:13.779Z,19.34
2022-08-20T00:46:13.773Z,19.34
2022-08-20T00:47:13.901Z,19.34
2022-08-20T00:48:13.744Z,19.33
2022-08-20T00:49:13.732Z,19.33
2022-08-20T00:50:13.722Z,19.33
2022-08-20T00:51:13.719Z,19.32
2022-08-20T00:52:13.746Z,19.32
2022-08-20T00:53:13.851Z,19.32
2022-08-20T00:54:13.681Z,19.32
2022-08-20T00:55:13.674Z,19.31
2022-08-20T00:56:13.661Z,19.31
2022-08-20T00:57:13.641Z,19.30
2022-08-20T00:58:13.645Z,19.30
2022-08-20T00:59:13.829Z,19.29
2022-08-20T01:00:13.611Z,19.28
2022-08-20T01:01:13.651Z,19.27
2022-08-20T01:02:13.640Z,19.26
2022-08-20T01:03:13.738Z,19.26
2022-08-20T01:04:13.627Z,19.25
2022-08-20T01:05:13.555Z,19.24
2022-08-20T01:06:13.559Z,19.24
2022-08-20T01:07:13.877Z,19.24
2022-08-20T01:08:13.531Z,19.24
2022-08-20T01:09:13.516Z,19.24
2022-08-20T01:10:13.514Z,19.24
2022-08-20T01:11:13.491Z,19.24
2022-08-20T01:12:13.493Z,19.24
2022-08-20T01:13:13.635Z,19.25
2022-08-20T01:14:13.462Z,19.25
2022-08-20T01:15:13.450Z,19.25
2022-08-20T01:16:13.445Z,19.25
2022-08-20T01:17:13.431Z,19.25
2022-08-20T01:18:13.757Z,19.24
2022-08-20T01:19:29.394Z,19.23
2022-08-20T01:20:14.394Z,19.22
2022-08-20T01:21:13.396Z,19.21
2022-08-20T01:22:13.394Z,19.20
2022-08-20T01:23:13.363Z,19.19
2022-08-20T01:24:13.559Z,19.19
2022-08-20T01:25:13.394Z,19.18
2022-08-20T01:26:13.334Z,19.17
2022-08-20T01:27:13.323Z,19.16
2022-08-20T01:28:13.325Z,19.16
2022-08-20T01:29:13.563Z,19.15
2022-08-20T01:30:13.292Z,19.14
2022-08-20T01:31:13.301Z,19.14
2022-08-20T01:32:13.276Z,19.13
2022-08-20T01:33:13.278Z,19.12
2022-08-20T01:34:13.276Z,19.11
2022-08-20T01:35:13.413Z,19.10
2022-08-20T01:36:13.252Z,19.09
2022-08-20T01:37:13.227Z,19.08
2022-08-20T01:38:13.216Z,19.07
2022-08-20T01:39:13.374Z,19.07
2022-08-20T01:40:13.236Z,19.06
2022-08-20T01:41:13.177Z,19.06
2022-08-20T01:42:13.163Z,19.05
2022-08-20T01:43:13.165Z,19.05
2022-08-20T01:44:18.426Z,19.05
2022-08-20T01:45:14.134Z,19.06
2022-08-20T01:46:13.166Z,19.06
2022-08-20T01:47:13.108Z,19.06
2022-08-20T01:48:13.104Z,19.06
2022-08-20T01:49:13.769Z,19.06
2022-08-20T01:50:14.414Z,19.06
2022-08-20T01:51:13.072Z,19.07
2022-08-20T01:52:13.095Z,19.06
2022-08-20T01:53:13.055Z,19.06
2022-08-20T01:54:13.055Z,19.05
2022-08-20T01:55:13.035Z,19.04
2022-08-20T01:56:13.326Z,19.03
2022-08-20T01:57:13.004Z,19.03
2022-08-20T01:58:12.994Z,19.02
2022-08-20T01:59:12.986Z,19.01
2022-08-20T02:00:19.575Z,19.01
2022-08-20T02:01:14.149Z,19.00
2022-08-20T02:02:12.970Z,19.00
2022-08-20T02:03:12.946Z,19.00
2022-08-20T02:04:20.452Z,18.99
2022-08-20T02:05:12.923Z,18.99
2022-08-20T02:06:12.936Z,18.99
2022-08-20T02:07:13.062Z,18.99
2022-08-20T02:08:12.906Z,18.99
2022-08-20T02:09:16.068Z,18.99
2022-08-20T02:10:12.865Z,18.98
2022-08-20T02:11:12.863Z,18.98
2022-08-20T02:12:13.073Z,18.97
2022-08-20T02:13:12.834Z,18.97
2022-08-20T02:14:12.835Z,18.96
2022-08-20T02:15:12.831Z,18.96
2022-08-20T02:16:12.802Z,18.96
2022-08-20T02:17:12.794Z,18.96
2022-08-20T02:18:13.119Z,18.95
2022-08-20T02:19:12.772Z,18.94
2022-08-20T02:20:12.768Z,18.93
2022-08-20T02:21:12.766Z,18.92
2022-08-20T02:22:12.743Z,18.92
2022-08-20T02:23:12.734Z,18.91
2022-08-20T02:24:12.951Z,18.90
2022-08-20T02:25:12.712Z,18.89
2022-08-20T02:26:12.707Z,18.89
2022-08-20T02:27:12.712Z,18.88
2022-08-20T02:28:12.678Z,18.87
2022-08-20T02:29:12.663Z,18.85
2022-08-20T02:30:27.880Z,18.85
2022-08-20T02:31:13.645Z,18.84
2022-08-20T02:32:24.490Z,18.84
2022-08-20T02:33:13.632Z,18.83
2022-08-20T02:34:22.548Z,18.83
2022-08-20T02:35:13.764Z,18.83
2022-08-20T02:36:12.595Z,18.83
2022-08-20T02:37:12.594Z,18.82
2022-08-20T02:38:12.579Z,18.82
2022-08-20T02:39:12.569Z,18.82
2022-08-20T02:40:12.582Z,18.82
2022-08-20T02:41:12.703Z,18.82
2022-08-20T02:42:12.544Z,18.82
2022-08-20T02:43:12.519Z,18.83
2022-08-20T02:44:12.506Z,18.83
2022-08-20T02:45:16.519Z,18.83
2022-08-20T02:46:13.636Z,18.83
2022-08-20T02:47:12.475Z,18.83
2022-08-20T02:48:12.487Z,18.84
2022-08-20T02:49:12.456Z,18.84
2022-08-20T02:50:12.484Z,18.84
2022-08-20T02:51:12.495Z,18.84
2022-08-20T02:52:12.648Z,18.84
2022-08-20T02:53:12.415Z,18.84
2022-08-20T02:54:12.415Z,18.85
2022-08-20T02:55:12.391Z,18.85
2022-08-20T02:56:13.386Z,18.84
2022-08-20T02:57:12.382Z,18.85
2022-08-20T02:58:12.784Z,18.85
2022-08-20T02:59:18.986Z,18.85
2022-08-20T03:00:13.364Z,18.85
2022-08-20T03:01:12.343Z,18.85
2022-08-20T03:02:12.317Z,18.84
2022-08-20T03:03:12.316Z,18.84
2022-08-20T03:04:12.466Z,18.84
2022-08-20T03:05:12.327Z,18.84
2022-08-20T03:06:12.292Z,18.84
2022-08-20T03:07:12.286Z,18.84
2022-08-20T03:08:12.257Z,18.85
2022-08-20T03:09:12.252Z,18.85
2022-08-20T03:10:12.561Z,18.85
2022-08-20T03:11:12.226Z,18.85
2022-08-20T03:12:12.218Z,18.85
2022-08-20T03:13:12.218Z,18.84
2022-08-20T03:14:12.198Z,18.84
2022-08-20T03:15:17.535Z,18.83
2022-08-20T03:16:13.568Z,18.83
2022-08-20T03:17:12.158Z,18.82
2022-08-20T03:18:12.182Z,18.82
2022-08-20T03:19:12.138Z,18.82
2022-08-20T03:20:12.139Z,18.82
2022-08-20T03:21:12.156Z,18.82
2022-08-20T03:22:12.327Z,18.82
2022-08-20T03:23:12.087Z,18.82
2022-08-20T03:24:12.094Z,18.82
2022-08-20T03:25:12.069Z,18.82
2022-08-20T03:26:12.066Z,18.82
2022-08-20T03:27:12.059Z,18.81
2022-08-20T03:28:12.246Z,18.81
2022-08-20T03:29:12.027Z,18.80
2022-08-20T03:30:12.038Z,18.79
2022-08-20T03:31:14.737Z,18.78
2022-08-20T03:32:11.999Z,18.77
2022-08-20T03:33:12.164Z,18.76
2022-08-20T03:34:11.987Z,18.76
2022-08-20T03:35:11.997Z,18.75
2022-08-20T03:36:11.992Z,18.75
2022-08-20T03:37:11.939Z,18.74
2022-08-20T03:38:11.937Z,18.74
2022-08-20T03:39:12.102Z,18.73
2022-08-20T03:40:11.973Z,18.73
2022-08-20T03:41:11.914Z,18.72
2022-08-20T03:42:11.931Z,18.72
2022-08-20T03:43:11.883Z,18.71
2022-08-20T03:44:11.869Z,18.71
2022-08-20T03:45:12.095Z,18.70
2022-08-20T03:46:21.998Z,18.70
2022-08-20T03:47:12.839Z,18.70
2022-08-20T03:48:11.835Z,18.70
2022-08-20T03:49:11.818Z,18.71
2022-08-20T03:50:23.259Z,18.71
2022-08-20T03:51:12.958Z,18.71
2022-08-20T03:52:11.788Z,18.71
2022-08-20T03:53:12.317Z,18.71
2022-08-20T03:54:11.780Z,18.72
2022-08-20T03:55:11.760Z,18.72
2022-08-20T03:56:12.119Z,18.72
2022-08-20T03:57:12.470Z,18.73
2022-08-20T03:58:11.736Z,18.73
2022-08-20T03:59:11.748Z,18.73
2022-08-20T04:00:11.733Z,18.74
2022-08-20T04:01:44.605Z,18.74
2022-08-20T04:02:13.033Z,18.74
2022-08-20T04:03:11.679Z,18.74
2022-08-20T04:04:12.445Z,18.75
2022-08-20T04:05:11.652Z,18.76
2022-08-20T04:06:11.652Z,18.76
2022-08-20T04:07:11.629Z,18.77
2022-08-20T04:08:11.774Z,18.78
2022-08-20T04:09:11.824Z,18.78
2022-08-20T04:10:11.601Z,18.78
2022-08-20T04:11:11.591Z,18.78
2022-08-20T04:12:11.576Z,18.78
2022-08-20T04:13:11.731Z,18.78
2022-08-20T04:14:11.595Z,18.78
2022-08-20T04:15:12.551Z,18.78
2022-08-20T04:16:12.823Z,18.78
2022-08-20T04:17:11.513Z,18.78
2022-08-20T04:18:11.532Z,18.78
2022-08-20T04:19:11.661Z,18.78
2022-08-20T04:20:11.501Z,18.79
2022-08-20T04:21:11.496Z,18.79
2022-08-20T04:22:11.468Z,18.80
2022-08-20T04:23:11.460Z,18.80
2022-08-20T04:24:22.506Z,18.80
2022-08-20T04:25:15.997Z,18.81
2022-08-20T04:26:11.422Z,18.81
2022-08-20T04:27:11.420Z,18.82
2022-08-20T04:28:11.401Z,18.82
2022-08-20T04:29:11.412Z,18.83
2022-08-20T04:30:11.635Z,18.83
2022-08-20T04:31:11.372Z,18.83
2022-08-20T04:32:11.360Z,18.82
2022-08-20T04:33:11.358Z,18.82
2022-08-20T04:34:11.337Z,18.82
2022-08-20T04:35:11.331Z,18.82
2022-08-20T04:36:11.487Z,18.82
2022-08-20T04:37:16.989Z,18.83
2022-08-20T04:38:12.301Z,18.84
2022-08-20T04:39:11.296Z,18.85
2022-08-20T04:40:11.319Z,18.85
2022-08-20T04:41:11.442Z,18.86
2022-08-20T04:42:12.265Z,18.86
2022-08-20T04:43:12.397Z,18.85
2022-08-20T04:44:11.231Z,18.85
2022-08-20T04:45:11.233Z,18.85
2022-08-20T04:46:11.233Z,18.84
2022-08-20T04:47:11.357Z,18.84
2022-08-20T04:48:14.907Z,18.84
2022-08-20T04:49:11.172Z,18.84
2022-08-20T04:50:11.163Z,18.84
2022-08-20T04:51:11.175Z,18.85
2022-08-20T04:52:11.871Z,18.85
2022-08-20T04:53:11.139Z,18.85
2022-08-20T04:54:11.129Z,18.84
2022-08-20T04:55:11.114Z,18.84
2022-08-20T04:56:11.105Z,18.84
2022-08-20T04:57:11.104Z,18.84
2022-08-20T04:58:11.299Z,18.84
2022-08-20T04:59:11.077Z,18.84
2022-08-20T05:00:11.057Z,18.84
2022-08-20T05:01:11.088Z,18.84
2022-08-20T05:02:11.063Z,18.84
2022-08-20T05:03:11.041Z,18.84
2022-08-20T05:04:11.174Z,18.84
2022-08-20T05:05:11.099Z,18.84
2022-08-20T05:06:10.998Z,18.85
2022-08-20T05:07:10.985Z,18.85
2022-08-20T05:08:20.003Z,18.86
2022-08-20T05:09:12.186Z,18.86
2022-08-20T05:10:10.953Z,18.87
2022-08-20T05:11:32.829Z,18.87
2022-08-20T05:12:11.947Z,18.87
2022-08-20T05:13:10.947Z,18.87
2022-08-20T05:14:10.908Z,18.87
2022-08-20T05:15:11.216Z,18.87
2022-08-20T05:16:10.895Z,18.88
2022-08-20T05:17:10.885Z,18.87
2022-08-20T05:18:10.873Z,18.87
2022-08-20T05:19:10.879Z,18.87
2022-08-20T05:20:10.853Z,18.87
2022-08-20T05:21:11.023Z,18.86
2022-08-20T05:22:10.833Z,18.86
2022-08-20T05:23:10.823Z,18.86
2022-08-20T05:24:10.804Z,18.86
2022-08-20T05:25:10.890Z,18.86
2022-08-20T05:26:10.784Z,18.86
2022-08-20T05:27:10.935Z,18.86
2022-08-20T05:28:11.766Z,18.85
2022-08-20T05:29:10.757Z,18.85
2022-08-20T05:30:11.780Z,18.85
2022-08-20T05:31:10.759Z,18.85
2022-08-20T05:32:10.726Z,18.85
2022-08-20T05:33:10.892Z,18.85
2022-08-20T05:34:11.758Z,18.85
2022-08-20T05:35:10.685Z,18.86
2022-08-20T05:36:10.683Z,18.86
2022-08-20T05:37:10.678Z,18.86
2022-08-20T05:38:10.661Z,18.85
2022-08-20T05:39:10.887Z,18.85
2022-08-20T05:40:10.787Z,18.85
2022-08-20T05:41:10.632Z,18.86
2022-08-20T05:42:10.618Z,18.86
2022-08-20T05:43:10.625Z,18.87
2022-08-20T05:44:10.623Z,18.87
2022-08-20T05:45:11.115Z,18.88
2022-08-20T05:46:10.581Z,18.88
2022-08-20T05:47:10.567Z,18.88
2022-08-20T05:48:10.555Z,18.88
2022-08-20T05:49:10.550Z,18.89
2022-08-20T05:50:10.544Z,18.89
2022-08-20T05:51:15.139Z,18.89
2022-08-20T05:52:10.533Z,18.88
2022-08-20T05:53:10.507Z,18.88
2022-08-20T05:54:10.498Z,18.87
2022-08-20T05:55:10.476Z,18.87
2022-08-20T05:56:10.627Z,18.87
2022-08-20T05:57:10.558Z,18.87
2022-08-20T05:58:10.458Z,18.87
2022-08-20T05:59:10.457Z,18.86
2022-08-20T06:00:10.435Z,18.86
2022-08-20T06:01:10.479Z,18.86
2022-08-20T06:02:10.563Z,18.86
2022-08-20T06:03:10.401Z,18.86
2022-08-20T06:04:10.387Z,18.86
2022-08-20T06:05:10.397Z,18.87
2022-08-20T06:06:18.043Z,18.87
2022-08-20T06:07:11.552Z,18.88
2022-08-20T06:08:10.338Z,18.89
2022-08-20T06:09:10.329Z,18.89
2022-08-20T06:10:10.330Z,18.90
2022-08-20T06:11:10.319Z,18.91
2022-08-20T06:12:10.358Z,18.92
2022-08-20T06:13:10.460Z,18.93
2022-08-20T06:14:10.434Z,18.94
2022-08-20T06:15:10.274Z,18.95
2022-08-20T06:16:10.261Z,18.95
2022-08-20T06:17:10.263Z,18.96
2022-08-20T06:18:27.313Z,18.96
2022-08-20T06:19:11.650Z,18.96
2022-08-20T06:20:10.208Z,18.97
2022-08-20T06:21:10.208Z,18.96
2022-08-20T06:22:19.969Z,18.96
2022-08-20T06:23:11.187Z,18.96
2022-08-20T06:24:10.178Z,18.96
2022-08-20T06:25:10.373Z,18.97
2022-08-20T06:26:10.148Z,18.98
2022-08-20T06:27:10.148Z,18.98
2022-08-20T06:28:10.128Z,18.99
2022-08-20T06:29:10.118Z,18.99
2022-08-20T06:30:10.154Z,18.99
2022-08-20T06:31:10.266Z,19.00
2022-08-20T06:32:10.079Z,19.01
2022-08-20T06:33:10.083Z,19.01
2022-08-20T06:34:10.070Z,19.02
2022-08-20T06:35:10.061Z,19.03
2022-08-20T06:36:10.199Z,19.04
2022-08-20T06:37:10.097Z,19.04
2022-08-20T06:38:10.063Z,19.05
2022-08-20T06:39:10.019Z,19.06
2022-08-20T06:40:10.115Z,19.06
2022-08-20T06:41:09.999Z,19.07
2022-08-20T06:42:10.136Z,19.07
2022-08-20T06:43:09.992Z,19.08
2022-08-20T06:44:09.964Z,19.08
2022-08-20T06:45:09.948Z,19.08
2022-08-20T06:46:09.944Z,19.08
2022-08-20T06:47:10.099Z,19.07
2022-08-20T06:48:09.918Z,19.07
2022-08-20T06:49:10.916Z,19.08
2022-08-20T06:50:09.901Z,19.08
2022-08-20T06:51:09.889Z,19.08
2022-08-20T06:52:09.880Z,19.08
2022-08-20T06:53:10.034Z,19.09
2022-08-20T06:54:09.859Z,19.10
2022-08-20T06:55:09.850Z,19.11
2022-08-20T06:56:09.839Z,19.12
2022-08-20T06:57:09.839Z,19.13
2022-08-20T06:58:15.673Z,19.14
2022-08-20T06:59:10.802Z,19.15
2022-08-20T07:00:09.804Z,19.15
2022-08-20T07:01:11.081Z,19.16
2022-08-20T07:02:09.767Z,19.16
2022-08-20T07:03:09.769Z,19.17
2022-08-20T07:04:09.940Z,19.17
2022-08-20T07:05:09.746Z,19.17
2022-08-20T07:06:09.731Z,19.17
2022-08-20T07:07:09.734Z,19.17
2022-08-20T07:08:09.709Z,19.17
2022-08-20T07:09:10.042Z,19.18
2022-08-20T07:10:09.699Z,19.18
2022-08-20T07:11:09.681Z,19.19
2022-08-20T07:12:09.671Z,19.20
2022-08-20T07:13:09.701Z,19.22
2022-08-20T07:14:09.642Z,19.24
2022-08-20T07:15:09.812Z,19.26
2022-08-20T07:16:09.624Z,19.28
2022-08-20T07:17:12.256Z,19.29
2022-08-20T07:18:09.598Z,19.31
2022-08-20T07:19:09.590Z,19.32
2022-08-20T07:20:09.588Z,19.33
2022-08-20T07:21:09.723Z,19.34
2022-08-20T07:22:09.553Z,19.35
2022-08-20T07:23:09.612Z,19.35
2022-08-20T07:24:09.543Z,19.36
2022-08-20T07:25:09.543Z,19.37
2022-08-20T07:26:09.691Z,19.37
2022-08-20T07:27:09.524Z,19.37
2022-08-20T07:28:09.496Z,19.38
2022-08-20T07:29:09.512Z,19.38
2022-08-20T07:30:12.632Z,19.38
2022-08-20T07:31:13.565Z,19.38
2022-08-20T07:32:09.743Z,19.37
2022-08-20T07:33:09.463Z,19.37
2022-08-20T07:34:09.432Z,19.38
2022-08-20T07:35:09.422Z,19.38
2022-08-20T07:36:09.408Z,19.39
2022-08-20T07:37:09.583Z,19.40
2022-08-20T07:38:09.398Z,19.41
2022-08-20T07:39:09.472Z,19.43
2022-08-20T07:40:09.524Z,19.44
2022-08-20T07:41:09.363Z,19.45
2022-08-20T07:42:09.358Z,19.47
2022-08-20T07:43:09.353Z,19.48
2022-08-20T07:44:09.333Z,19.48
2022-08-20T07:45:09.323Z,19.49
2022-08-20T07:46:09.347Z,19.50
2022-08-20T07:47:09.303Z,19.50
2022-08-20T07:48:09.555Z,19.51
2022-08-20T07:49:09.295Z,19.52
2022-08-20T07:50:09.286Z,19.52
2022-08-20T07:51:09.259Z,19.53
2022-08-20T07:52:09.248Z,19.54
2022-08-20T07:53:09.970Z,19.54
2022-08-20T07:54:10.046Z,19.55
2022-08-20T07:55:09.235Z,19.56
2022-08-20T07:56:09.203Z,19.57
2022-08-20T07:57:09.189Z,19.58
2022-08-20T07:58:09.224Z,19.59
2022-08-20T07:59:10.228Z,19.60
2022-08-20T08:00:09.856Z,19.61
2022-08-20T08:01:09.308Z,19.62
2022-08-20T08:02:09.188Z,19.63
2022-08-20T08:03:09.124Z,19.64
2022-08-20T08:04:09.226Z,19.65
2022-08-20T08:05:09.104Z,19.66
2022-08-20T08:06:09.283Z,19.68
2022-08-20T08:07:09.084Z,19.70
2022-08-20T08:08:09.067Z,19.72
2022-08-20T08:09:09.075Z,19.73
2022-08-20T08:10:09.044Z,19.74
2022-08-20T08:11:09.051Z,19.75
2022-08-20T08:12:09.186Z,19.76
2022-08-20T08:13:09.028Z,19.77
2022-08-20T08:14:09.011Z,19.78
2022-08-20T08:15:09.004Z,19.79
2022-08-20T08:16:08.998Z,19.80
2022-08-20T08:17:09.127Z,19.80
2022-08-20T08:18:09.143Z,19.81
2022-08-20T08:19:16.485Z,19.81
2022-08-20T08:20:08.967Z,19.82
2022-08-20T08:21:08.937Z,19.83
2022-08-20T08:22:09.143Z,19.84
2022-08-20T08:23:08.927Z,19.84
2022-08-20T08:24:09.913Z,19.85
2022-08-20T08:25:08.898Z,19.86
2022-08-20T08:26:08.952Z,19.87
2022-08-20T08:27:10.824Z,19.87
2022-08-20T08:28:08.874Z,19.88
2022-08-20T08:29:08.859Z,19.88
2022-08-20T08:30:08.857Z,19.89
2022-08-20T08:31:08.833Z,19.90
2022-08-20T08:32:08.849Z,19.91
2022-08-20T08:33:09.052Z,19.92
2022-08-20T08:34:08.802Z,19.93
2022-08-20T08:35:08.798Z,19.93
2022-08-20T08:36:08.773Z,19.94
2022-08-20T08:37:08.773Z,19.95
2022-08-20T08:38:08.807Z,19.96
2022-08-20T08:39:09.941Z,19.97
2022-08-20T08:40:08.804Z,19.98
2022-08-20T08:41:08.739Z,19.99
2022-08-20T08:42:08.714Z,19.99
2022-08-20T08:43:09.704Z,20.00
2022-08-20T08:44:08.933Z,20.02
2022-08-20T08:45:08.691Z,20.03
2022-08-20T08:46:08.694Z,20.03
2022-08-20T08:47:08.669Z,20.04
2022-08-20T08:48:08.655Z,20.05
2022-08-20T08:49:08.647Z,20.06
2022-08-20T08:50:08.978Z,20.07
2022-08-20T08:51:08.613Z,20.07
2022-08-20T08:52:08.623Z,20.08
2022-08-20T08:53:08.594Z,20.08
2022-08-20T08:54:08.589Z,20.09
2022-08-20T08:55:08.589Z,20.10
2022-08-20T08:56:08.739Z,20.11
2022-08-20T08:57:08.563Z,20.12
2022-08-20T08:58:16.551Z,20.13
2022-08-20T08:59:09.533Z,20.14
2022-08-20T09:00:08.543Z,20.15
2022-08-20T09:01:09.862Z,20.16
2022-08-20T09:02:09.708Z,20.17
2022-08-20T09:03:08.496Z,20.19
2022-08-20T09:04:08.502Z,20.20
2022-08-20T09:05:08.516Z,20.21
2022-08-20T09:06:08.469Z,20.22
2022-08-20T09:07:08.458Z,20.23
2022-08-20T09:08:08.684Z,20.24
2022-08-20T09:09:08.432Z,20.24
2022-08-20T09:10:08.446Z,20.25
2022-08-20T09:11:08.417Z,20.26
2022-08-20T09:12:08.405Z,20.27
2022-08-20T09:13:08.402Z,20.28
2022-08-20T09:14:08.549Z,20.29
2022-08-20T09:15:08.373Z,20.30
2022-08-20T09:16:08.392Z,20.32
2022-08-20T09:17:08.354Z,20.34
2022-08-20T09:18:08.350Z,20.35
2022-08-20T09:19:08.540Z,20.38
2022-08-20T09:20:08.327Z,20.39
2022-08-20T09:21:08.321Z,20.41
2022-08-20T09:22:08.300Z,20.43
2022-08-20T09:23:08.327Z,20.44
2022-08-20T09:24:08.305Z,20.46
2022-08-20T09:25:08.418Z,20.47
2022-08-20T09:26:08.259Z,20.48
2022-08-20T09:27:08.261Z,20.48
2022-08-20T09:28:08.227Z,20.48
2022-08-20T09:29:08.221Z,20.48
2022-08-20T09:30:08.219Z,20.47
2022-08-20T09:31:08.376Z,20.47
2022-08-20T09:32:08.193Z,20.47
2022-08-20T09:33:08.185Z,20.47
2022-08-20T09:34:08.169Z,20.47
2022-08-20T09:35:09.561Z,20.48
2022-08-20T09:36:31.836Z,20.49
2022-08-20T09:37:09.307Z,20.50
2022-08-20T09:38:08.130Z,20.51
2022-08-20T09:39:08.122Z,20.51
2022-08-20T09:40:08.192Z,20.52
2022-08-20T09:41:08.142Z,20.52
2022-08-20T09:42:08.108Z,20.53
2022-08-20T09:43:08.250Z,20.54
2022-08-20T09:44:08.064Z,20.55
2022-08-20T09:45:10.963Z,20.56
2022-08-20T09:46:08.047Z,20.57
2022-08-20T09:47:08.028Z,20.59
2022-08-20T09:48:10.334Z,20.61
2022-08-20T09:49:08.931Z,20.63
2022-08-20T09:50:08.004Z,20.65
2022-08-20T09:51:07.999Z,20.66
2022-08-20T09:52:07.984Z,20.67
2022-08-20T09:53:07.961Z,20.68
2022-08-20T09:54:07.956Z,20.68
2022-08-20T09:55:08.113Z,20.69
2022-08-20T09:56:07.947Z,20.69
2022-08-20T09:57:07.915Z,20.70
2022-08-20T09:58:07.919Z,20.71
2022-08-20T09:59:07.905Z,20.73
2022-08-20T10:00:08.156Z,20.75
2022-08-20T10:01:07.881Z,20.77
2022-08-20T10:02:08.951Z,20.78
2022-08-20T10:03:07.886Z,20.78
2022-08-20T10:04:07.843Z,20.77
2022-08-20T10:05:07.839Z,20.77
2022-08-20T10:06:07.991Z,20.76
2022-08-20T10:07:07.822Z,20.76
2022-08-20T10:08:07.813Z,20.76
2022-08-20T10:09:07.787Z,20.76
2022-08-20T10:10:07.801Z,20.77
2022-08-20T10:11:07.770Z,20.78
2022-08-20T10:12:08.051Z,20.80
2022-08-20T10:13:07.758Z,20.81
2022-08-20T10:14:07.741Z,20.83
2022-08-20T10:15:07.726Z,20.85
2022-08-20T10:16:07.725Z,20.87
2022-08-20T10:17:07.717Z,20.90
2022-08-20T10:18:08.079Z,20.92
2022-08-20T10:19:07.687Z,20.94
2022-08-20T10:20:07.697Z,20.95
2022-08-20T10:21:07.655Z,20.95
2022-08-20T10:22:07.655Z,20.96
2022-08-20T10:23:07.638Z,20.96
2022-08-20T10:24:07.861Z,20.97
2022-08-20T10:25:07.632Z,20.98
2022-08-20T10:26:07.611Z,21.00
2022-08-20T10:27:07.602Z,21.01
2022-08-20T10:28:07.596Z,21.02
2022-08-20T10:29:07.578Z,21.03
2022-08-20T10:30:07.772Z,21.05
2022-08-20T10:31:08.075Z,21.07
2022-08-20T10:32:07.550Z,21.08
2022-08-20T10:33:07.537Z,21.10
2022-08-20T10:34:07.542Z,21.12
2022-08-20T10:35:07.528Z,21.13
2022-08-20T10:36:07.710Z,21.14
2022-08-20T10:37:07.515Z,21.15
2022-08-20T10:38:07.485Z,21.16
2022-08-20T10:39:07.479Z,21.17
2022-08-20T10:40:07.561Z,21.18
2022-08-20T10:41:07.455Z,21.19
2022-08-20T10:42:07.629Z,21.20
2022-08-20T10:43:07.437Z,21.20
2022-08-20T10:44:07.451Z,21.21
2022-08-20T10:45:07.412Z,21.22
2022-08-20T10:46:07.406Z,21.23
2022-08-20T10:47:07.405Z,21.23
2022-08-20T10:48:07.585Z,21.24
2022-08-20T10:49:07.393Z,21.24
2022-08-20T10:50:07.372Z,21.25
2022-08-20T10:51:07.352Z,21.25
2022-08-20T10:52:07.665Z,21.26
2022-08-20T10:53:07.329Z,21.27
2022-08-20T10:54:08.265Z,21.27
2022-08-20T10:55:08.315Z,21.28
2022-08-20T10:56:07.296Z,21.28
2022-08-20T10:57:07.290Z,21.29
2022-08-20T10:58:07.445Z,21.30
2022-08-20T10:59:07.275Z,21.30
2022-08-20T11:00:07.256Z,21.31
2022-08-20T11:01:07.239Z,21.31
2022-08-20T11:02:07.260Z,21.32
2022-08-20T11:03:07.229Z,21.32
2022-08-20T11:04:07.521Z,21.33
2022-08-20T11:05:07.203Z,21.34
2022-08-20T11:06:07.249Z,21.35
2022-08-20T11:07:07.173Z,21.36
2022-08-20T11:08:07.174Z,21.36
2022-08-20T11:09:09.679Z,21.37
2022-08-20T11:10:11.798Z,21.38
2022-08-20T11:11:08.163Z,21.39
2022-08-20T11:12:07.134Z,21.40
2022-08-20T11:13:07.115Z,21.41
2022-08-20T11:14:07.134Z,21.42
2022-08-20T11:15:07.131Z,21.43
2022-08-20T11:16:07.487Z,21.44
2022-08-20T11:17:07.072Z,21.45
2022-08-20T11:18:07.085Z,21.46
2022-08-20T11:19:07.049Z,21.47
2022-08-20T11:20:07.049Z,21.48
2022-08-20T11:21:07.027Z,21.49
2022-08-20T11:22:07.046Z,21.50
2022-08-20T11:23:07.015Z,21.50
2022-08-20T11:24:06.992Z,21.51
2022-08-20T11:25:06.992Z,21.51
2022-08-20T11:26:06.966Z,21.52
2022-08-20T11:27:06.981Z,21.54
2022-08-20T11:28:07.296Z,21.55
2022-08-20T11:29:06.948Z,21.56
2022-08-20T11:30:06.935Z,21.55
2022-08-20T11:31:06.953Z,21.54
2022-08-20T11:32:06.912Z,21.53
2022-08-20T11:33:06.902Z,21.53
2022-08-20T11:34:12.094Z,21.52
2022-08-20T11:35:38.426Z,21.52
2022-08-20T11:36:07.866Z,21.53
2022-08-20T11:37:06.872Z,21.56
2022-08-20T11:38:06.864Z,21.57
2022-08-20T11:39:06.842Z,21.59
2022-08-20T11:40:07.104Z,21.61
2022-08-20T11:41:06.826Z,21.62
2022-08-20T11:42:06.812Z,21.63
2022-08-20T11:43:15.625Z,21.64
2022-08-20T11:44:21.321Z,21.64
2022-08-20T11:45:07.964Z,21.65
2022-08-20T11:46:06.759Z,21.66
2022-08-20T11:47:06.768Z,21.67
2022-08-20T11:48:06.752Z,21.68
2022-08-20T11:49:06.729Z,21.69
2022-08-20T11:50:06.726Z,21.70
2022-08-20T11:51:06.953Z,21.71
2022-08-20T11:52:06.698Z,21.71
2022-08-20T11:53:08.038Z,21.71
2022-08-20T11:54:06.673Z,21.71
2022-08-20T11:55:06.669Z,21.71
2022-08-20T11:56:06.663Z,21.71
2022-08-20T11:57:06.814Z,21.71
2022-08-20T11:58:06.636Z,21.72
2022-08-20T11:59:06.650Z,21.72
2022-08-20T12:00:06.624Z,21.73
2022-08-20T12:01:06.599Z,21.74
2022-08-20T12:02:11.631Z,21.75
2022-08-20T12:03:09.565Z,21.75
2022-08-20T12:04:06.566Z,21.76
2022-08-20T12:05:06.568Z,21.76
2022-08-20T12:06:06.551Z,21.77
2022-08-20T12:07:06.539Z,21.78
2022-08-20T12:08:06.534Z,21.79
2022-08-20T12:09:06.688Z,21.80
2022-08-20T12:10:06.517Z,21.81
2022-08-20T12:11:06.497Z,21.82
2022-08-20T12:12:06.483Z,21.83
2022-08-20T12:13:06.484Z,21.84
2022-08-20T12:14:06.461Z,21.85
2022-08-20T12:15:06.622Z,21.86
2022-08-20T12:16:06.441Z,21.87
2022-08-20T12:17:06.431Z,21.88
2022-08-20T12:18:06.421Z,21.89
2022-08-20T12:19:06.419Z,21.89
2022-08-20T12:20:06.401Z,21.90
2022-08-20T12:21:06.734Z,21.91
2022-08-20T12:22:24.326Z,21.92
2022-08-20T12:23:07.393Z,21.93
2022-08-20T12:24:06.365Z,21.93
2022-08-20T12:25:06.346Z,21.95
2022-08-20T12:26:06.340Z,21.96
2022-08-20T12:27:06.492Z,21.98
2022-08-20T12:28:06.314Z,21.99
2022-08-20T12:29:06.312Z,22.00
2022-08-20T12:30:06.311Z,22.01
2022-08-20T12:31:06.323Z,22.02
2022-08-20T12:32:06.272Z,22.02
2022-08-20T12:33:06.603Z,22.03
2022-08-20T12:34:06.263Z,22.04
2022-08-20T12:35:06.241Z,22.05
2022-08-20T12:36:06.244Z,22.05
2022-08-20T12:37:06.219Z,22.06
2022-08-20T12:38:06.201Z,22.06
2022-08-20T12:39:06.548Z,22.08
2022-08-20T12:40:06.299Z,22.09
2022-08-20T12:41:06.198Z,22.10
2022-08-20T12:42:06.162Z,22.10
2022-08-20T12:43:06.156Z,22.11
2022-08-20T12:44:06.144Z,22.11
2022-08-20T12:45:06.472Z,22.12
2022-08-20T12:46:06.135Z,22.12
2022-08-20T12:47:06.117Z,22.12
2022-08-20T12:48:06.116Z,22.13
2022-08-20T12:49:06.096Z,22.13
2022-08-20T12:50:06.106Z,22.14
2022-08-20T12:51:06.424Z,22.14
2022-08-20T12:52:06.054Z,22.15